createdAt,value
2019-05-22T00:04:27.192Z,3.00
2019-05-22T00:09:39.934Z,4.00
2019-05-22T00:14:46.643Z,3.20
2019-05-22T00:19:51.223Z,3.40
2019-05-22T00:25:00.505Z,3.23
2019-05-22T00:30:06.195Z,3.77
2019-05-22T00:35:14.410Z,3.50
2019-05-22T00:40:20.355Z,3.30
2019-05-22T00:45:25.004Z,4.10
2019-05-22T00:50:32.667Z,5.17
2019-05-22T00:55:43.735Z,7.53
2019-05-22T01:01:14.270Z,6.20
2019-05-22T01:06:22.748Z,4.03
2019-05-22T01:11:29.357Z,7.47
2019-05-22T01:16:34.008Z,5.20
2019-05-22T01:21:40.065Z,6.07
2019-05-22T01:26:48.302Z,5.03
2019-05-22T01:31:59.742Z,5.73
2019-05-22T01:37:10.205Z,6.20
2019-05-22T01:42:15.465Z,10.43
2019-05-22T01:47:24.121Z,9.63
2019-05-22T01:52:29.657Z,8.87
2019-05-22T01:57:34.768Z,8.53
2019-05-22T02:02:40.954Z,8.53
2019-05-22T02:07:45.541Z,7.50
2019-05-22T02:12:52.450Z,9.20
2019-05-22T02:17:57.711Z,7.07
2019-05-22T02:23:02.774Z,7.63
2019-05-22T02:28:09.172Z,9.97
2019-05-22T02:33:14.415Z,9.37
2019-05-22T02:38:18.979Z,7.63
2019-05-22T02:43:24.561Z,8.30
2019-05-22T02:48:30.783Z,7.70
2019-05-22T02:53:35.803Z,7.90
2019-05-22T02:58:40.534Z,10.03
2019-05-22T03:03:45.683Z,8.93
2019-05-22T03:09:08.111Z,9.83
2019-05-22T03:14:13.545Z,9.23
2019-05-22T03:19:22.637Z,8.10
2019-05-22T03:24:28.901Z,9.97
2019-05-22T03:29:53.279Z,8.13
2019-05-22T03:34:59.403Z,8.93
2019-05-22T03:40:06.194Z,10.00
2019-05-22T03:45:11.888Z,6.40
2019-05-22T03:50:17.811Z,9.70
2019-05-22T03:55:23.573Z,8.30
2019-05-22T04:00:29.108Z,10.27
2019-05-22T04:05:34.986Z,6.70
2019-05-22T04:10:46.962Z,7.30
2019-05-22T04:15:53.348Z,8.63
2019-05-22T04:20:58.382Z,8.57
2019-05-22T04:26:06.013Z,9.13
2019-05-22T04:31:10.682Z,7.63
2019-05-22T04:36:17.069Z,6.40
2019-05-22T04:41:21.884Z,7.50
2019-05-22T04:46:27.054Z,6.73
2019-05-22T04:51:31.713Z,6.43
2019-05-22T04:56:36.345Z,7.20
2019-05-22T05:01:41.080Z,6.13
2019-05-22T05:06:47.872Z,4.73
2019-05-22T05:11:52.436Z,8.13
2019-05-22T05:16:58.458Z,6.87
2019-05-22T05:22:02.993Z,7.20
2019-05-22T05:27:10.710Z,7.50
2019-05-22T05:32:15.642Z,6.40
2019-05-22T05:37:23.733Z,5.23
2019-05-22T05:42:28.543Z,5.00
2019-05-22T05:47:33.127Z,5.70
2019-05-22T05:52:38.038Z,5.80
2019-05-22T05:58:03.174Z,5.07
2019-05-22T06:03:27.102Z,4.17
2019-05-22T06:08:33.699Z,4.40
2019-05-22T06:13:38.279Z,4.50
2019-05-22T06:18:43.396Z,4.23
2019-05-22T06:24:06.089Z,3.27
2019-05-22T06:29:12.654Z,3.37
2019-05-22T06:34:17.206Z,3.53
2019-05-22T06:39:23.027Z,3.60
2019-05-22T06:44:44.195Z,3.40
2019-05-22T06:49:53.387Z,2.90
2019-05-22T06:54:57.925Z,2.93
2019-05-22T07:00:15.261Z,3.20
2019-05-22T07:05:20.287Z,2.40
2019-05-22T07:10:26.170Z,3.20
2019-05-22T07:15:56.409Z,3.63
2019-05-22T07:21:01.459Z,4.20
2019-05-22T07:26:08.123Z,3.47
2019-05-22T07:31:13.835Z,3.23
2019-05-22T07:36:18.637Z,3.20
2019-05-22T07:41:23.384Z,2.77
2019-05-22T07:46:30.871Z,4.20
2019-05-22T07:51:49.720Z,4.00
2019-05-22T07:56:41.402Z,4.33
2019-05-22T08:01:46.113Z,3.60
2019-05-22T08:06:51.024Z,6.13
2019-05-22T08:11:55.850Z,4.43
2019-05-22T08:17:00.392Z,3.30
2019-05-22T08:22:07.630Z,4.80
2019-05-22T08:27:11.143Z,4.50
2019-05-22T08:32:15.792Z,3.80
2019-05-22T08:37:22.022Z,3.90
2019-05-22T08:42:26.550Z,5.20
2019-05-22T08:47:31.740Z,3.27
2019-05-22T08:52:36.679Z,3.27
2019-05-22T08:57:42.542Z,4.07
2019-05-22T09:02:47.339Z,3.37
2019-05-22T09:07:51.951Z,4.87
2019-05-22T09:12:56.554Z,5.07
2019-05-22T09:18:01.176Z,5.20
2019-05-22T09:23:06.041Z,3.30
2019-05-22T09:28:10.778Z,5.00
2019-05-22T09:33:16.446Z,4.10
2019-05-22T09:38:23.390Z,4.73
2019-05-22T09:43:27.917Z,3.90
2019-05-22T09:48:33.846Z,4.37
2019-05-22T09:53:39.570Z,3.47
2019-05-22T09:58:44.408Z,4.87
2019-05-22T10:03:49.323Z,3.83
2019-05-22T10:08:53.925Z,5.13
2019-05-22T10:13:58.613Z,3.47
2019-05-22T10:19:04.014Z,4.70
2019-05-22T10:24:08.531Z,5.00
2019-05-22T10:29:13.729Z,4.70
2019-05-22T10:34:18.278Z,4.20
2019-05-22T10:39:24.870Z,2.77
2019-05-22T10:44:29.776Z,3.63
2019-05-22T10:49:34.359Z,4.00
2019-05-22T10:54:38.881Z,3.57
2019-05-22T10:59:43.963Z,3.03
2019-05-22T11:04:49.199Z,3.23
2019-05-22T11:09:54.554Z,2.97
2019-05-22T11:14:59.553Z,2.70
2019-05-22T11:20:08.424Z,3.00
2019-05-22T11:25:13.753Z,4.00
2019-05-22T11:30:18.363Z,4.23
2019-05-22T11:35:23.788Z,3.47
2019-05-22T11:40:29.074Z,2.97
2019-05-22T11:45:34.095Z,3.10
2019-05-22T11:50:39.596Z,3.43
2019-05-22T11:55:46.140Z,2.53
2019-05-22T12:00:51.242Z,3.40
2019-05-22T12:05:55.950Z,3.27
2019-05-22T12:11:01.957Z,3.20
2019-05-22T12:16:07.145Z,3.50
2019-05-22T12:21:12.331Z,3.00
2019-05-22T12:26:17.525Z,3.27
2019-05-22T12:31:22.618Z,3.03
2019-05-22T12:36:27.154Z,3.43
2019-05-22T12:41:32.222Z,3.60
2019-05-22T12:46:37.153Z,3.10
2019-05-22T12:51:41.667Z,3.20
2019-05-22T12:56:46.196Z,2.77
2019-05-22T13:01:52.871Z,2.53
2019-05-22T13:06:57.537Z,0.90
2019-05-22T13:12:03.836Z,2.40
2019-05-22T13:17:09.315Z,2.57
2019-05-22T13:22:14.351Z,3.13
2019-05-22T13:27:20.087Z,2.60
2019-05-22T13:32:26.630Z,2.13
2019-05-22T13:37:31.152Z,2.67
2019-05-22T13:42:36.657Z,2.17
2019-05-22T13:47:41.188Z,2.00
2019-05-22T13:52:46.658Z,2.07
2019-05-22T13:57:51.258Z,3.20
2019-05-22T14:02:57.105Z,2.30
2019-05-22T14:08:01.697Z,2.17
2019-05-22T14:13:07.313Z,3.30
2019-05-22T14:18:12.963Z,2.30
2019-05-22T14:23:19.057Z,3.03
2019-05-22T14:28:25.278Z,2.63
2019-05-22T14:33:31.510Z,2.90
2019-05-22T14:38:36.058Z,3.10
2019-05-22T14:43:41.498Z,3.00
2019-05-22T14:48:46.038Z,2.93
2019-05-22T14:53:54.287Z,3.07
2019-05-22T14:58:58.908Z,3.50
2019-05-22T15:04:06.555Z,3.20
2019-05-22T15:09:11.154Z,2.20
2019-05-22T15:14:17.069Z,2.27
2019-05-22T15:19:21.984Z,2.67
2019-05-22T15:24:27.797Z,2.57
2019-05-22T15:29:32.354Z,2.70
2019-05-22T15:34:38.549Z,2.57
2019-05-22T15:39:44.267Z,2.37
2019-05-22T15:44:48.946Z,2.00
2019-05-22T15:49:54.393Z,2.07
2019-05-22T15:55:00.712Z,2.67
2019-05-22T16:00:06.143Z,2.50
2019-05-22T16:05:12.501Z,2.50
2019-05-22T16:10:17.913Z,2.33
2019-05-22T16:15:23.831Z,2.57
2019-05-22T16:20:28.588Z,3.17
2019-05-22T16:25:37.185Z,2.43
2019-05-22T16:30:41.796Z,2.20
2019-05-22T16:35:48.115Z,2.20
2019-05-22T16:40:52.909Z,2.63
2019-05-22T16:45:58.185Z,2.60
2019-05-22T16:51:02.806Z,2.13
2019-05-22T16:56:07.778Z,1.70
2019-05-22T17:01:13.225Z,1.80
2019-05-22T17:06:19.398Z,2.00
2019-05-22T17:11:24.055Z,2.60
2019-05-22T17:16:31.929Z,1.73
2019-05-22T17:21:37.058Z,1.90
2019-05-22T17:26:43.949Z,1.97
2019-05-22T17:31:48.582Z,2.53
2019-05-22T17:36:55.546Z,2.10
2019-05-22T17:42:00.171Z,2.47
2019-05-22T17:47:06.687Z,2.10
2019-05-22T17:52:13.303Z,1.70
2019-05-22T17:57:21.483Z,1.87
2019-05-22T18:02:31.463Z,1.97
2019-05-22T18:07:38.526Z,1.90
2019-05-22T18:12:43.171Z,1.83
2019-05-22T18:17:49.159Z,1.90
2019-05-22T18:22:53.859Z,1.63
2019-05-22T18:28:01.243Z,1.97
2019-05-22T18:33:05.975Z,1.70
2019-05-22T18:38:11.651Z,2.03
2019-05-22T18:43:18.799Z,2.00
2019-05-22T18:48:23.532Z,2.10
2019-05-22T18:53:28.322Z,1.60
2019-05-22T18:58:33.390Z,1.73
2019-05-22T19:03:38.035Z,1.90
2019-05-22T19:08:43.142Z,1.60
2019-05-22T19:13:47.793Z,1.83
2019-05-22T19:18:52.538Z,1.90
2019-05-22T19:23:57.071Z,2.13
2019-05-22T19:29:02.342Z,1.77
2019-05-22T19:34:07.064Z,1.73
2019-05-22T19:39:11.850Z,1.60
2019-05-22T19:44:17.016Z,1.60
2019-05-22T19:49:23.754Z,1.47
2019-05-22T19:54:28.441Z,1.87
2019-05-22T19:59:35.027Z,1.60
2019-05-22T20:04:39.922Z,2.00
2019-05-22T20:09:45.607Z,1.97
2019-05-22T20:14:50.358Z,1.67
2019-05-22T20:19:55.138Z,1.67
2019-05-22T20:24:59.669Z,1.70
2019-05-22T20:30:05.140Z,2.23
2019-05-22T20:35:10.075Z,1.67
2019-05-22T20:40:14.729Z,1.73
2019-05-22T20:45:23.057Z,1.83
2019-05-22T20:50:27.654Z,1.87
2019-05-22T20:55:32.258Z,1.80
2019-05-22T21:00:36.950Z,1.53
2019-05-22T21:05:43.390Z,1.73
2019-05-22T21:10:48.669Z,1.47
2019-05-22T21:15:54.951Z,1.70
2019-05-22T21:21:00.512Z,1.60
2019-05-22T21:26:05.086Z,1.70
2019-05-22T21:31:13.060Z,1.67
2019-05-22T21:36:18.948Z,1.60
2019-05-22T21:41:24.194Z,1.67
2019-05-22T21:46:29.451Z,1.73
2019-05-22T21:51:34.286Z,1.43
2019-05-22T21:56:39.898Z,1.90
2019-05-22T22:02:02.914Z,2.03
2019-05-22T22:07:08.023Z,1.50
2019-05-22T22:12:14.841Z,1.60
2019-05-22T22:17:20.642Z,1.40
2019-05-22T22:22:26.782Z,1.60
2019-05-22T22:27:32.010Z,1.30
2019-05-22T22:32:39.217Z,1.80
2019-05-22T22:37:44.766Z,1.50
2019-05-22T22:42:51.577Z,1.50
2019-05-22T22:47:56.320Z,1.67
2019-05-22T22:53:01.276Z,1.60
2019-05-22T22:58:17.125Z,1.50
2019-05-22T23:03:18.188Z,1.80
2019-05-22T23:08:24.660Z,1.30
2019-05-22T23:13:29.952Z,1.63
2019-05-22T23:18:53.047Z,1.30
2019-05-22T23:23:57.277Z,1.50
2019-05-22T23:29:01.863Z,1.40
2019-05-22T23:34:08.051Z,1.30
2019-05-22T23:39:15.102Z,1.50
2019-05-22T23:44:21.451Z,1.40
2019-05-22T23:49:27.326Z,1.90
2019-05-22T23:54:33.691Z,1.27
2019-05-22T23:59:39.885Z,1.57
